Latest Coastal Weather Observations for Hillarys Point Boat Harbour

IDW60701

Issued at 7:05 am WST Saturday 26 July 2014 (issued every 10 minutes, with the page automatically refreshed every 10 minutes)

About coastal observations | Map of coastal stations | Coastal observations for WA | Marine services | Other Formats
Station Details ID: 009265 Name: HILLARYS BOAT HARBOUR NTC AWS Lat: -31.83 Lon: 115.74 Height: 0.0 m
Data from the previous 72 hours. | See also: Recent months for locations in Western Australia
Date/Time
WST
Temp

°C
Wind Pressure Rain
since 9am
mm
Weather Cloud Vis
km
Sea
Height
m
Swell
Dir
 
Speed
knots
Gust
knots
hPa Trend Height
m
Period
s
Dir
26/07:00am 14.8 N 7 12 1014.3 - - - - - - - - -
26/06:30am 14.3 N 7 12 1014.1 - - - - - - - - -
26/06:00am 14.9 N 7 13 1014.3 - - - - - - - - -
26/05:30am 14.6 N 8 13 1014.2 - - - - - - - - -
26/05:00am 15.3 N 8 13 1013.7 - - - - - - - - -
26/04:30am 15.4 N 7 12 1013.9 - - - - - - - - -
26/04:00am 15.2 N 5 9 1014.0 - - - - - - - - -
26/03:30am 14.9 N 5 10 1014.3 - - - - - - - - -
26/03:00am 15.0 N 7 10 1014.5 - - - - - - - - -
26/02:30am 15.0 N 7 12 1014.7 - - - - - - - - -
26/02:00am 15.8 N 7 12 1015.3 - - - - - - - - -
26/01:30am 16.1 N 8 14 1015.2 - - - - - - - - -
26/01:00am 15.7 N 7 11 1015.3 - - - - - - - - -
26/12:30am 15.4 N 7 12 1015.6 - - - - - - - - -
26/12:00am 15.6 N 6 11 1015.9 - - - - - - - - -
 
Date/Time
WST
Temp

°C
Wind Pressure Rain
since 9am
mm
Weather Cloud Vis
km
Sea
Height
m
Swell
Dir
 
Speed
knots
Gust
knots
hPa Trend Height
m
Period
s
Dir
25/11:30pm 16.2 N 7 12 1016.2 - - - - - - - - -
25/11:00pm 16.2 N 7 14 1016.5 - - - - - - - - -
25/10:30pm 15.5 N 6 10 1016.8 - - - - - - - - -
25/10:00pm 15.5 N 6 10 1017.1 - - - - - - - - -
25/09:30pm 15.2 N 8 13 1017.2 - - - - - - - - -
25/09:00pm 14.8 N 8 16 1017.6 - - - - - - - - -
25/08:30pm 17.3 N 8 18 1017.5 - - - - - - - - -
25/08:00pm 16.7 NNW 9 18 1017.5 - - - - - - - - -
25/07:30pm 16.9 N 13 22 1017.3 - - - - - - - - -
25/07:00pm 15.9 NNW 12 22 1017.4 - - - - - - - - -
25/06:30pm 17.6 NNW 10 17 1016.9 - - - - - - - - -
25/06:00pm 17.5 NNW 11 20 1017.0 - - - - - - - - -
25/05:30pm 16.6 NNW 10 21 1017.2 - - - - - - - - -
25/05:00pm 18.4 NNW 11 22 1017.2 - - - - - - - - -
25/04:30pm 18.0 N 12 21 1017.4 - - - - - - - - -
25/04:00pm 17.4 NW 14 25 1017.9 - - - - - - - - -
25/03:54pm 16.9 NW 15 25 1017.9 - - - - - - - - -
25/03:30pm 18.0 NNW 11 19 1017.5 - - - - - - - - -
25/03:00pm 17.3 NNW 13 23 1017.7 - - - - - - - - -
25/02:30pm 16.1 NW 11 21 1018.0 - - - - - - - - -
25/02:00pm 17.4 NNW 12 20 1017.8 - - - - - - - - -
25/01:30pm 17.6 NNW 12 21 1018.0 - - - - - - - - -
25/01:00pm 16.8 NNW 12 21 1018.2 - - - - - - - - -
25/12:30pm 17.7 NNW 9 15 1018.6 - - - - - - - - -
25/12:00pm 16.8 NW 10 18 1019.5 - - - - - - - - -
25/11:30am 17.8 NNW 9 15 1019.6 - - - - - - - - -
25/11:00am 17.6 N 9 14 1019.9 - - - - - - - - -
25/10:30am 16.9 N 10 17 1020.0 - - - - - - - - -
25/10:00am 16.5 N 8 13 1020.0 - - - - - - - - -
25/09:30am 15.6 N 6 10 1020.0 - - - - - - - - -
25/09:00am 15.0 N 7 12 1020.0 - - - - - - - - -
25/08:30am 14.9 N 8 13 1019.7 - - - - - - - - -
25/08:00am 14.5 NNE 6 11 1019.6 - - - - - - - - -
25/07:30am 13.9 NNE 5 10 1019.7 - - - - - - - - -
25/07:00am 13.8 NNE 4 7 1019.7 - - - - - - - - -
25/06:30am 13.9 N 5 7 1019.6 - - - - - - - - -
25/06:00am 13.9 N 6 11 1019.5 - - - - - - - - -
25/05:30am 14.1 NNE 5 9 1019.1 - - - - - - - - -
25/05:00am 14.1 NNE 5 8 1019.1 - - - - - - - - -
25/04:30am 13.9 NNE 5 8 1019.3 - - - - - - - - -
25/04:00am 13.8 N 6 11 1019.7 - - - - - - - - -
25/03:30am 14.1 N 7 11 1020.1 - - - - - - - - -
25/03:00am 13.8 NNE 5 8 1019.7 - - - - - - - - -
25/02:30am 13.7 NNE 6 12 1019.6 - - - - - - - - -
25/02:00am 13.5 NNE 6 10 1019.8 - - - - - - - - -
25/01:30am 13.7 NNE 5 9 1020.0 - - - - - - - - -
25/01:00am 13.8 NNE 5 8 1020.2 - - - - - - - - -
25/12:30am 14.2 NNE 5 9 1020.3 - - - - - - - - -
25/12:00am 13.9 NNE 5 7 1020.5 - - - - - - - - -
 
Date/Time
WST
Temp

°C
Wind Pressure Rain
since 9am
mm
Weather Cloud Vis
km
Sea
Height
m
Swell
Dir
 
Speed
knots
Gust
knots
hPa Trend Height
m
Period
s
Dir
24/11:30pm 14.3 NNE 4 8 1020.7 - - - - - - - - -
24/11:00pm 14.5 NNE 4 7 1020.9 - - - - - - - - -
24/10:30pm 14.7 NNE 3 5 1021.2 - - - - - - - - -
24/10:00pm 15.2 NNE 3 5 1020.8 - - - - - - - - -
24/09:30pm 14.8 NE 2 4 1020.9 - - - - - - - - -
24/09:00pm 14.8 NE 2 4 1021.1 - - - - - - - - -
24/08:30pm 15.0 E 2 4 1021.2 - - - - - - - - -
24/08:00pm 15.4 NE 2 4 1021.2 - - - - - - - - -
24/07:30pm 15.3 NE 2 4 1021.1 - - - - - - - - -
24/07:00pm 15.3 NE 2 3 1021.1 - - - - - - - - -
24/06:30pm 16.0 NE 1 2 1021.0 - - - - - - - - -
24/06:00pm 16.1 N 1 2 1020.9 - - - - - - - - -
24/05:30pm 16.3 CALM 0 0 1020.7 - - - - - - - - -
24/05:00pm 16.7 WSW 1 2 1020.5 - - - - - - - - -
24/04:30pm 16.5 WSW 2 3 1020.4 - - - - - - - - -
24/04:00pm 16.9 SW 1 2 1020.2 - - - - - - - - -
24/03:30pm 16.4 SW 2 4 1020.5 - - - - - - - - -
24/03:00pm 16.3 SSE 2 4 1020.4 - - - - - - - - -
24/02:30pm 16.3 SSW 3 6 1020.7 - - - - - - - - -
24/02:00pm 17.0 SSW 2 5 1020.6 - - - - - - - - -
24/01:30pm 16.8 SW 4 6 1020.7 - - - - - - - - -
24/01:00pm 16.8 WSW 3 5 1020.9 - - - - - - - - -
24/12:30pm 17.0 SW 2 3 1021.2 - - - - - - - - -
24/12:00pm 16.8 WSW 2 4 1021.5 - - - - - - - - -
24/11:30am 17.3 S 2 3 1021.8 - - - - - - - - -
24/11:00am 17.1 SSE 2 4 1021.9 - - - - - - - - -
24/10:30am 16.7 SSE 2 4 1022.0 - - - - - - - - -
24/10:00am 16.3 SE 2 5 1022.1 - - - - - - - - -
24/09:30am 15.9 SSE 3 7 1021.8 - - - - - - - - -
24/09:00am 15.7 ESE 2 5 1021.5 - - - - - - - - -
24/08:30am 14.8 E 2 5 1021.2 - - - - - - - - -
24/08:00am 14.5 SSE 2 5 1021.0 - - - - - - - - -
24/07:30am 14.7 SE 1 4 1020.6 - - - - - - - - -
24/07:00am 15.3 SSE 4 9 1020.4 - - - - - - - - -
24/06:30am 15.8 S 4 10 1020.1 - - - - - - - - -
24/06:00am 17.5 SW 8 14 1019.7 - - - - - - - - -
24/05:30am 16.8 SW 11 17 1019.6 - - - - - - - - -
24/05:00am 16.9 WSW 11 18 1019.3 - - - - - - - - -
24/04:30am 17.7 WSW 14 17 1019.2 - - - - - - - - -
24/04:00am 17.7 WSW 14 18 1019.2 - - - - - - - - -
24/03:30am 17.6 WSW 12 17 1019.3 - - - - - - - - -
24/03:00am 17.5 W 9 14 1019.6 - - - - - - - - -
24/02:30am 17.2 W 10 15 1019.7 - - - - - - - - -
24/02:00am 17.2 W 11 16 1019.8 - - - - - - - - -
24/01:30am 17.3 WSW 12 17 1019.6 - - - - - - - - -
24/01:00am 17.1 WSW 10 16 1019.6 - - - - - - - - -
24/12:30am 17.0 WSW 12 15 1019.8 - - - - - - - - -
24/12:00am 16.9 WSW 12 16 1020.1 - - - - - - - - -
 
Date/Time
WST
Temp

°C
Wind Pressure Rain
since 9am
mm
Weather Cloud Vis
km
Sea
Height
m
Swell
Dir
 
Speed
knots
Gust
knots
hPa Trend Height
m
Period
s
Dir
23/11:30pm 16.1 W 13 19 1020.5 - - - - - - - - -
23/11:00pm 16.8 WSW 11 15 1020.6 - - - - - - - - -
23/10:30pm 16.8 WSW 11 15 1020.7 - - - - - - - - -
23/10:00pm 16.7 WSW 12 16 1020.8 - - - - - - - - -
23/09:30pm 16.7 WSW 10 15 1020.9 - - - - - - - - -
23/09:00pm 16.6 WSW 10 13 1020.8 - - - - - - - - -
23/08:30pm 16.5 WSW 10 14 1020.7 - - - - - - - - -
23/08:00pm 16.4 WSW 10 15 1020.9 - - - - - - - - -
23/07:30pm 16.4 WSW 10 13 1020.7 - - - - - - - - -
23/07:00pm 16.2 W 8 13 1020.6 - - - - - - - - -
23/06:30pm 15.9 W 7 12 1020.4 - - - - - - - - -
23/06:00pm 15.8 W 7 11 1020.0 - - - - - - - - -
23/05:30pm 15.7 WSW 8 12 1020.3 - - - - - - - - -
23/05:00pm 15.4 WSW 8 11 1020.2 - - - - - - - - -
23/04:30pm 15.5 WSW 8 11 1020.1 - - - - - - - - -
23/04:00pm 15.5 W 7 11 1020.0 - - - - - - - - -
23/03:30pm 14.9 SW 5 8 1020.1 - - - - - - - - -
23/03:00pm 14.3 SW 12 16 1020.2 - - - - - - - - -
23/02:30pm 15.6 NW 5 10 1020.2 - - - - - - - - -
23/02:00pm 14.7 NNW 5 8 1020.1 - - - - - - - - -
23/01:30pm 14.8 NNW 6 9 1020.5 - - - - - - - - -
23/01:00pm 14.6 NNW 6 11 1020.8 - - - - - - - - -
23/12:30pm 14.4 NNW 5 7 1021.1 - - - - - - - - -
23/12:00pm 14.1 N 4 7 1021.6 - - - - - - - - -
23/11:30am 13.7 NNE 5 8 1022.0 - - - - - - - - -
23/11:00am 13.0 NNE 5 10 1022.4 - - - - - - - - -
23/10:30am 12.3 NNE 5 9 1022.6 - - - - - - - - -
23/10:00am 11.7 NNE 5 8 1023.1 - - - - - - - - -
23/09:30am 11.9 NNE 3 5 1023.1 - - - - - - - - -
23/09:00am 11.4 NNE 3 5 1022.4 - - - - - - - - -
23/08:30am 11.0 NNE 3 5 1022.3 - - - - - - - - -
23/08:00am 10.7 NE 2 4 1022.3 - - - - - - - - -
23/07:30am 10.6 NNE 3 5 1022.3 - - - - - - - - -

Other Formats:

Comma delimited format used in spreadsheet applications
http://www.bom.gov.au/fwo/IDW60701/IDW60701.95605.axf

JavaScript Object Notation format (JSON) in row-major order
http://www.bom.gov.au/fwo/IDW60701/IDW60701.95605.json